Time;durP1;ratioP1;P1;durP2;ratioP2;P2;SDS_P1;SDS_P2;PMS_P1;PMS_P2;Temp;Humidity;BMP_temperature;BMP_pressure;BME280_temperature;BME280_humidity;BME280_pressure;Samples;Min_cycle;Max_cycle;Signal;HPM_P1;HPM_P2
2024/01/23 00:02:12;;;;;;;60.30;53.35;;;10.40;99.90;;;;;;5050511;28;20034;-73
2024/01/23 00:04:38;;;;;;;63.33;53.55;;;10.40;99.90;;;;;;5051537;28;20036;-74
2024/01/23 00:07:04;;;;;;;77.88;56.00;;;10.40;99.90;;;;;;5051099;28;20361;-74
2024/01/23 00:09:30;;;;;;;62.97;57.50;;;10.40;99.90;;;;;;5050985;28;20029;-73
2024/01/23 00:11:58;;;;;;;63.58;56.78;;;10.40;99.90;;;;;;5051623;28;20075;-74
2024/01/23 00:14:24;;;;;;;64.30;55.63;;;10.40;99.90;;;;;;5053428;28;20041;-73
2024/01/23 00:16:50;;;;;;;60.97;54.42;;;10.40;99.90;;;;;;5053935;28;20055;-73
2024/01/23 00:19:16;;;;;;;66.53;59.80;;;10.40;99.90;;;;;;5054549;28;20049;-73
2024/01/23 00:21:42;;;;;;;61.80;55.25;;;10.50;99.90;;;;;;5045854;28;20395;-73
2024/01/23 00:24:09;;;;;;;61.85;55.78;;;10.40;99.90;;;;;;5054902;28;20029;-74
2024/01/23 00:26:35;;;;;;;63.45;56.50;;;10.40;99.90;;;;;;5054581;28;20072;-73
2024/01/23 00:29:03;;;;;;;62.50;56.22;;;10.40;99.90;;;;;;5054745;28;20566;-74
2024/01/23 00:31:29;;;;;;;64.75;57.15;;;10.40;99.90;;;;;;5054022;28;20380;-73
2024/01/23 00:33:55;;;;;;;73.05;64.78;;;10.50;99.90;;;;;;5054766;28;20029;-74
2024/01/23 00:36:22;;;;;;;66.38;56.00;;;10.40;99.90;;;;;;5053832;28;20033;-74
2024/01/23 00:38:48;;;;;;;63.15;56.47;;;10.40;99.90;;;;;;5052754;28;20048;-74
2024/01/23 00:41:14;;;;;;;66.45;59.28;;;10.40;99.90;;;;;;5053878;28;20368;-73
2024/01/23 00:43:40;;;;;;;69.68;63.10;;;10.40;99.90;;;;;;5054552;28;20025;-74
2024/01/23 00:46:07;;;;;;;73.13;65.25;;;10.40;99.90;;;;;;5053697;28;20033;-74
2024/01/23 00:48:33;;;;;;;62.10;55.20;;;10.40;99.90;;;;;;5043460;28;20033;-73
2024/01/23 00:51:00;;;;;;;75.47;68.60;;;10.40;99.90;;;;;;5041022;28;20025;-73
2024/01/23 00:53:26;;;;;;;75.97;68.47;;;10.40;99.90;;;;;;5054368;28;20040;-73
2024/01/23 00:55:52;;;;;;;77.43;69.95;;;10.40;99.90;;;;;;5048495;28;20033;-73
2024/01/23 00:58:18;;;;;;;66.63;59.92;;;10.40;99.90;;;;;;5034337;28;20025;-73
2024/01/23 01:00:44;;;;;;;77.25;70.03;;;10.40;99.90;;;;;;5033648;28;20045;-73
2024/01/23 01:03:11;;;;;;;76.90;70.00;;;10.40;99.90;;;;;;5033889;28;20048;-73
2024/01/23 01:05:37;;;;;;;74.65;67.00;;;10.40;99.90;;;;;;5048489;28;20063;-88
2024/01/23 01:08:04;;;;;;;73.07;65.47;;;10.40;99.90;;;;;;5053030;28;20037;-88
2024/01/23 01:10:30;;;;;;;70.40;63.30;;;10.40;99.90;;;;;;5053744;28;20080;-89
2024/01/23 01:12:56;;;;;;;67.68;60.70;;;10.30;99.90;;;;;;5054120;28;20040;-88
2024/01/23 01:15:22;;;;;;;72.05;65.32;;;10.30;99.90;;;;;;5053334;28;20380;-88
2024/01/23 01:17:49;;;;;;;66.32;59.08;;;10.40;99.90;;;;;;5041984;28;20036;-89
2024/01/23 01:20:15;;;;;;;77.07;69.85;;;10.40;99.90;;;;;;5035649;28;20074;-89
2024/01/23 01:22:41;;;;;;;67.90;61.53;;;10.40;99.90;;;;;;5054717;28;20037;-88
2024/01/23 01:25:08;;;;;;;75.93;69.13;;;10.40;99.90;;;;;;5053029;28;20092;-88
2024/01/23 01:27:35;;;;;;;76.40;69.47;;;10.40;99.90;;;;;;5054274;28;20108;-88
2024/01/23 01:30:02;;;;;;;83.90;75.88;;;10.30;99.90;;;;;;5053239;28;20043;-88
2024/01/23 01:32:28;;;;;;;75.57;68.93;;;10.30;99.90;;;;;;5052821;28;20048;-88
2024/01/23 01:34:54;;;;;;;77.43;70.65;;;10.30;99.90;;;;;;5054480;28;20391;-88
2024/01/23 01:37:20;;;;;;;69.55;62.55;;;10.30;99.90;;;;;;5037017;28;20040;-88
2024/01/23 01:39:46;;;;;;;83.60;76.32;;;10.30;99.90;;;;;;5034571;28;20502;-88
2024/01/23 01:42:12;;;;;;;86.97;79.75;;;10.30;99.90;;;;;;5051670;28;20033;-88
2024/01/23 01:44:38;;;;;;;94.00;85.60;;;10.30;99.90;;;;;;5035673;28;20526;-88
2024/01/23 01:47:05;;;;;;;91.68;83.85;;;10.30;99.90;;;;;;5048970;28;20033;-88
2024/01/23 01:49:31;;;;;;;89.28;80.60;;;10.30;99.90;;;;;;5036745;28;20045;-88
2024/01/23 01:51:57;;;;;;;85.72;78.10;;;10.30;99.90;;;;;;5053658;28;20040;-86
2024/01/23 01:54:23;;;;;;;82.40;74.97;;;10.30;99.90;;;;;;5054785;28;20132;-88
2024/01/23 01:56:51;;;;;;;89.60;81.82;;;10.30;99.90;;;;;;5040329;28;20036;-88
2024/01/23 01:59:18;;;;;;;89.88;82.35;;;10.30;99.90;;;;;;5034723;28;20037;-87
2024/01/23 02:01:44;;;;;;;81.88;75.10;;;10.30;99.90;;;;;;5033088;28;20048;-88
2024/01/23 02:04:10;;;;;;;70.43;63.53;;;10.30;99.90;;;;;;5049427;28;20044;-88
2024/01/23 02:06:37;;;;;;;75.45;68.97;;;10.30;99.90;;;;;;5033470;28;20044;-86
2024/01/23 02:09:03;;;;;;;70.07;63.22;;;10.30;99.90;;;;;;5032865;28;20461;-88
2024/01/23 02:11:29;;;;;;;64.45;56.22;;;10.20;99.90;;;;;;5037824;28;20443;-87
2024/01/23 02:13:55;;;;;;;77.30;70.20;;;10.20;99.90;;;;;;5052038;28;20049;-73
2024/01/23 02:16:22;;;;;;;61.25;55.05;;;10.20;99.90;;;;;;5050817;28;20487;-74
2024/01/23 02:18:48;;;;;;;65.25;58.40;;;10.20;99.90;;;;;;5052697;28;20040;-73
2024/01/23 02:21:15;;;;;;;65.95;59.25;;;10.20;99.90;;;;;;5047204;28;20021;-73
2024/01/23 02:23:42;;;;;;;62.58;52.97;;;10.10;99.90;;;;;;5040958;28;20033;-73
2024/01/23 02:26:08;;;;;;;62.25;56.30;;;10.10;99.90;;;;;;5049647;28;20142;-73
2024/01/23 02:28:35;;;;;;;61.58;55.22;;;10.10;99.90;;;;;;5052621;28;20028;-73
2024/01/23 02:31:01;;;;;;;63.60;56.00;;;10.00;99.90;;;;;;5051802;28;20025;-73
2024/01/23 02:33:27;;;;;;;64.07;57.22;;;10.00;99.90;;;;;;5052471;28;20033;-73
2024/01/23 02:35:54;;;;;;;63.85;56.03;;;10.00;99.90;;;;;;5052141;28;20032;-73
2024/01/23 02:38:20;;;;;;;68.55;61.30;;;10.10;99.90;;;;;;5051965;28;20506;-73
2024/01/23 02:40:46;;;;;;;70.93;63.50;;;10.10;99.90;;;;;;5051203;28;20033;-73
2024/01/23 02:43:12;;;;;;;60.25;53.72;;;10.10;99.90;;;;;;5052368;28;20482;-73
2024/01/23 02:45:38;;;;;;;68.85;61.63;;;10.10;99.90;;;;;;5050220;28;20033;-73
2024/01/23 02:48:04;;;;;;;64.28;57.83;;;10.10;99.90;;;;;;5050967;28;20033;-73
2024/01/23 02:50:31;;;;;;;63.83;56.50;;;10.10;99.90;;;;;;5064878;28;20021;-73
2024/01/23 02:52:57;;;;;;;63.08;56.63;;;10.10;99.90;;;;;;5047245;28;20045;-73
2024/01/23 02:55:24;;;;;;;66.50;59.90;;;10.00;99.90;;;;;;5041248;28;20506;-73
2024/01/23 02:57:50;;;;;;;71.55;65.13;;;10.10;99.90;;;;;;5052161;28;20036;-73
2024/01/23 03:00:17;;;;;;;79.22;72.00;;;10.10;99.90;;;;;;5050705;28;20430;-73
2024/01/23 03:02:43;;;;;;;79.43;71.75;;;10.10;99.90;;;;;;5044412;28;20021;-73
2024/01/23 03:05:09;;;;;;;79.20;70.97;;;10.10;99.90;;;;;;5040011;28;20040;-73
2024/01/23 03:07:35;;;;;;;82.30;75.22;;;10.10;99.90;;;;;;5039141;28;20017;-73
2024/01/23 03:10:02;;;;;;;74.43;67.85;;;10.00;99.90;;;;;;5045152;28;20025;-75
2024/01/23 03:12:28;;;;;;;72.20;65.63;;;10.00;99.90;;;;;;5047951;28;20049;-73
2024/01/23 03:14:54;;;;;;;68.78;62.47;;;10.00;99.90;;;;;;5053931;28;20053;-73
2024/01/23 03:17:20;;;;;;;68.30;61.67;;;9.90;99.90;;;;;;5039711;28;20056;-88
2024/01/23 03:19:46;;;;;;;74.13;67.28;;;9.90;99.90;;;;;;5030764;28;20037;-88
2024/01/23 03:22:13;;;;;;;73.47;66.68;;;9.90;99.90;;;;;;5039172;28;20025;-88
2024/01/23 03:24:39;;;;;;;81.25;73.88;;;9.90;99.90;;;;;;5050488;28;20037;-86
2024/01/23 03:27:06;;;;;;;92.50;84.63;;;9.90;99.90;;;;;;5050078;28;20415;-88
2024/01/23 03:29:41;;;;;;;81.63;73.13;;;9.90;99.90;;;;;;5049436;28;20021;-87
2024/01/23 03:32:08;;;;;;;87.85;79.65;;;9.90;99.90;;;;;;5050125;28;20029;-87
2024/01/23 03:34:34;;;;;;;83.82;75.15;;;9.90;99.90;;;;;;5051169;28;20041;-87
2024/01/23 03:37:01;;;;;;;77.45;66.72;;;9.80;99.90;;;;;;5036162;28;20025;-88
2024/01/23 03:39:27;;;;;;;84.85;77.50;;;9.80;99.90;;;;;;5031469;28;20041;-88
2024/01/23 03:41:53;;;;;;;82.45;75.15;;;9.90;99.90;;;;;;5046305;28;20032;-88
2024/01/23 03:44:23;;;;;;;80.25;72.85;;;9.90;99.90;;;;;;5051615;28;20029;-88
2024/01/23 03:46:50;;;;;;;79.70;72.25;;;9.90;99.90;;;;;;5040277;28;20041;-88
2024/01/23 03:49:16;;;;;;;92.40;83.75;;;10.00;99.90;;;;;;5056162;28;20025;-88
2024/01/23 03:51:43;;;;;;;86.53;78.75;;;9.90;99.90;;;;;;5055163;28;20029;-87
2024/01/23 03:54:09;;;;;;;75.47;68.90;;;9.90;99.90;;;;;;5055663;28;20491;-88
2024/01/23 03:56:35;;;;;;;70.15;63.05;;;9.80;99.90;;;;;;5056182;28;20039;-88
2024/01/23 03:59:01;;;;;;;68.88;62.45;;;9.90;99.90;;;;;;5056450;28;20029;-88
2024/01/23 04:01:27;;;;;;;68.13;61.80;;;9.80;99.90;;;;;;5053767;28;20052;-88
2024/01/23 04:03:53;;;;;;;65.05;58.90;;;9.80;99.90;;;;;;5055336;28;20487;-88
2024/01/23 04:06:19;;;;;;;63.80;57.03;;;9.80;99.90;;;;;;5052402;28;20507;-87
2024/01/23 04:08:46;;;;;;;69.88;63.08;;;9.90;99.90;;;;;;5054054;28;20111;-88
2024/01/23 04:11:12;;;;;;;65.20;58.78;;;9.80;99.90;;;;;;5046466;28;20046;-89
2024/01/23 04:13:38;;;;;;;65.15;58.45;;;9.90;99.90;;;;;;5053640;28;20037;-88
2024/01/23 04:16:07;;;;;;;70.65;63.38;;;9.90;99.90;;;;;;5054311;28;20379;-88
2024/01/23 04:18:33;;;;;;;72.18;65.57;;;9.90;99.90;;;;;;5055469;28;20045;-87
2024/01/23 04:20:59;;;;;;;79.78;72.57;;;10.00;99.90;;;;;;5053500;28;20032;-88
2024/01/23 04:23:26;;;;;;;72.47;65.57;;;10.00;99.90;;;;;;5055075;28;20028;-88
2024/01/23 04:25:52;;;;;;;68.65;62.13;;;9.90;99.90;;;;;;5054383;28;20040;-88
2024/01/23 04:28:18;;;;;;;72.03;66.20;;;9.90;99.90;;;;;;5052845;28;20029;-87
2024/01/23 04:30:44;;;;;;;65.32;58.13;;;9.90;99.90;;;;;;5052110;28;20032;-88
2024/01/23 04:33:10;;;;;;;64.47;58.08;;;9.90;99.90;;;;;;5052002;28;20021;-88
2024/01/23 04:35:36;;;;;;;71.25;63.78;;;9.90;99.90;;;;;;5038384;28;20044;-73
2024/01/23 04:38:02;;;;;;;71.35;65.15;;;9.90;99.90;;;;;;5054708;28;20032;-73
2024/01/23 04:40:28;;;;;;;71.60;65.05;;;9.90;99.90;;;;;;5054348;28;20041;-73
2024/01/23 04:42:54;;;;;;;78.15;71.00;;;9.90;99.90;;;;;;5053490;28;20025;-73
2024/01/23 04:45:21;;;;;;;75.13;68.15;;;9.80;99.90;;;;;;5050446;28;20030;-73
2024/01/23 04:47:47;;;;;;;82.72;75.47;;;9.80;99.90;;;;;;5054144;28;20392;-73
2024/01/23 04:50:13;;;;;;;68.15;61.20;;;9.80;99.90;;;;;;5053123;28;20029;-73
2024/01/23 04:52:39;;;;;;;71.88;65.15;;;9.80;99.90;;;;;;5053233;28;20017;-73
2024/01/23 04:55:06;;;;;;;64.20;57.70;;;9.80;99.90;;;;;;5069746;28;20037;-73
2024/01/23 04:57:32;;;;;;;71.88;64.75;;;9.80;99.90;;;;;;5034335;28;20025;-73
2024/01/23 04:59:58;;;;;;;62.10;55.58;;;9.80;99.90;;;;;;5050405;28;20041;-72
2024/01/23 05:02:26;;;;;;;60.97;52.28;;;9.80;99.90;;;;;;5051106;28;20747;-73
2024/01/23 05:04:52;;;;;;;60.75;50.08;;;9.90;99.90;;;;;;5053902;28;20021;-73
2024/01/23 05:07:19;;;;;;;56.67;50.58;;;9.90;99.90;;;;;;5046498;28;20036;-73
2024/01/23 05:09:45;;;;;;;60.65;54.42;;;9.90;99.90;;;;;;5040787;28;20025;-73
2024/01/23 05:12:11;;;;;;;62.03;55.15;;;9.90;99.90;;;;;;5061984;28;20034;-73
2024/01/23 05:14:37;;;;;;;59.13;53.25;;;10.00;99.90;;;;;;5034605;28;20042;-72
2024/01/23 05:17:03;;;;;;;159.85;66.63;;;10.00;99.90;;;;;;5051491;28;20029;-73
2024/01/23 05:19:29;;;;;;;62.70;56.10;;;10.00;99.90;;;;;;5053761;28;20463;-73
2024/01/23 05:21:56;;;;;;;242.90;67.90;;;10.00;99.90;;;;;;5053557;28;20044;-74
2024/01/23 05:24:22;;;;;;;65.43;52.30;;;10.00;99.90;;;;;;5053771;28;20036;-73
2024/01/23 05:26:48;;;;;;;63.00;52.83;;;10.00;99.90;;;;;;5050419;28;20495;-73
2024/01/23 05:29:14;;;;;;;65.55;58.88;;;10.00;99.90;;;;;;5040389;28;20041;-73
2024/01/23 05:31:40;;;;;;;67.10;59.95;;;9.90;99.90;;;;;;5044134;28;20508;-73
2024/01/23 05:34:06;;;;;;;62.75;56.17;;;9.90;99.90;;;;;;5035189;28;20036;-73
2024/01/23 05:36:32;;;;;;;57.25;51.30;;;10.00;99.90;;;;;;5051873;28;20494;-88
2024/01/23 05:38:58;;;;;;;59.88;53.58;;;10.00;99.90;;;;;;5053459;28;20049;-87
2024/01/23 05:41:25;;;;;;;59.20;53.17;;;10.00;99.90;;;;;;5053305;28;20044;-88
2024/01/23 05:43:51;;;;;;;93.10;55.38;;;10.10;99.90;;;;;;5068272;28;20152;-88
2024/01/23 05:46:17;;;;;;;59.95;52.80;;;10.10;99.90;;;;;;5052227;28;20048;-88
2024/01/23 05:48:43;;;;;;;61.95;55.53;;;10.10;99.90;;;;;;5053508;28;20029;-88
2024/01/23 05:51:10;;;;;;;64.82;54.60;;;10.10;99.90;;;;;;5053052;28;20028;-87
2024/01/23 05:53:36;;;;;;;63.30;56.95;;;10.10;99.90;;;;;;5053498;28;20039;-88
2024/01/23 05:56:02;;;;;;;72.93;66.05;;;10.20;99.90;;;;;;5051318;28;20033;-88
2024/01/23 05:58:28;;;;;;;75.55;68.55;;;10.20;99.90;;;;;;5053343;28;20025;-88
2024/01/23 06:00:54;;;;;;;67.10;56.25;;;10.20;99.90;;;;;;5067084;28;20032;-87
2024/01/23 06:03:20;;;;;;;58.30;52.30;;;10.20;99.90;;;;;;5051910;28;20503;-88
2024/01/23 06:05:46;;;;;;;62.60;56.60;;;10.10;99.90;;;;;;5052801;28;20025;-88
2024/01/23 06:08:12;;;;;;;66.15;59.90;;;10.10;99.90;;;;;;5068238;28;20060;-88
2024/01/23 06:10:38;;;;;;;60.17;53.80;;;10.10;99.90;;;;;;5052317;28;20048;-87
2024/01/23 06:13:05;;;;;;;65.70;57.95;;;10.10;99.90;;;;;;5042386;28;20372;-88
2024/01/23 06:15:31;;;;;;;63.83;57.45;;;10.10;99.90;;;;;;5034816;28;20045;-88
2024/01/23 06:17:57;;;;;;;70.65;63.00;;;10.10;99.90;;;;;;5052822;28;20108;-86
2024/01/23 06:20:23;;;;;;;76.07;68.15;;;10.10;99.90;;;;;;5048813;28;20041;-88
2024/01/23 06:22:49;;;;;;;68.90;62.13;;;10.10;99.90;;;;;;5047976;28;20021;-87
2024/01/23 06:25:15;;;;;;;79.47;72.35;;;10.10;99.90;;;;;;5032787;28;20033;-88
2024/01/23 06:27:45;;;;;;;88.00;79.93;;;10.10;99.90;;;;;;5031080;28;20476;-88
2024/01/23 06:30:13;;;;;;;227.45;98.85;;;10.10;99.90;;;;;;5031444;28;20044;-88
2024/01/23 06:32:39;;;;;;;65.38;58.40;;;10.00;99.90;;;;;;5031497;28;20045;-87
2024/01/23 06:35:06;;;;;;;72.03;64.82;;;10.10;99.90;;;;;;5039082;28;20403;-87
2024/01/23 06:37:33;;;;;;;79.63;72.70;;;10.10;99.90;;;;;;5051015;28;20033;-88
2024/01/23 06:39:59;;;;;;;95.57;86.32;;;10.10;99.90;;;;;;5052459;28;20028;-87
2024/01/23 06:42:25;;;;;;;60.63;54.10;;;10.00;99.90;;;;;;5050921;28;20403;-88
2024/01/23 06:44:51;;;;;;;58.65;52.13;;;9.90;99.90;;;;;;5052035;28;20367;-88
2024/01/23 06:47:18;;;;;;;61.35;50.72;;;9.90;99.90;;;;;;5051565;28;20037;-88
2024/01/23 06:49:44;;;;;;;75.88;51.03;;;9.90;99.90;;;;;;5050071;28;20029;-78
2024/01/23 06:52:10;;;;;;;59.83;51.83;;;9.90;99.90;;;;;;5051593;28;20037;-78
2024/01/23 06:54:36;;;;;;;62.00;55.42;;;9.80;99.90;;;;;;5039025;28;20037;-79
2024/01/23 06:57:02;;;;;;;56.42;50.58;;;9.90;99.90;;;;;;5047515;28;20037;-78
2024/01/23 06:59:28;;;;;;;61.10;47.75;;;9.90;99.90;;;;;;5052182;28;20048;-78
2024/01/23 07:01:54;;;;;;;63.85;49.38;;;9.90;99.90;;;;;;5051519;28;20041;-78
2024/01/23 07:04:20;;;;;;;58.38;50.42;;;9.90;99.90;;;;;;5051334;28;20036;-78
2024/01/23 07:06:46;;;;;;;59.83;52.55;;;9.90;99.90;;;;;;5051747;28;20036;-79
2024/01/23 07:09:13;;;;;;;58.28;48.58;;;9.90;99.90;;;;;;5052440;28;20060;-79
2024/01/23 07:11:42;;;;;;;66.10;50.30;;;9.90;99.90;;;;;;5039090;28;20483;-78
2024/01/23 07:14:08;;;;;;;54.60;49.05;;;9.80;99.90;;;;;;5031384;28;20481;-78
2024/01/23 07:16:34;;;;;;;59.65;52.05;;;9.80;99.90;;;;;;5031510;28;20463;-78
2024/01/23 07:19:00;;;;;;;60.92;54.25;;;9.80;99.90;;;;;;5032311;28;20033;-78
2024/01/23 07:21:26;;;;;;;82.13;73.85;;;9.90;99.90;;;;;;5044877;28;20036;-77
2024/01/23 07:23:52;;;;;;;68.22;60.92;;;9.90;99.90;;;;;;5040633;28;20033;-78
2024/01/23 07:26:19;;;;;;;77.45;68.25;;;9.80;99.90;;;;;;5053935;28;20427;-78
2024/01/23 07:28:45;;;;;;;79.50;71.03;;;9.80;99.90;;;;;;5040006;28;20022;-78
2024/01/23 07:31:11;;;;;;;75.20;67.85;;;9.80;99.90;;;;;;5047495;28;20033;-78
2024/01/23 07:33:37;;;;;;;74.20;66.28;;;9.90;99.90;;;;;;5040913;28;20492;-79
2024/01/23 07:36:04;;;;;;;73.50;66.07;;;9.90;99.90;;;;;;5055683;28;20021;-78
2024/01/23 07:38:30;;;;;;;76.90;69.57;;;9.90;99.90;;;;;;5055813;28;20041;-79
2024/01/23 07:40:56;;;;;;;77.00;69.57;;;9.90;99.90;;;;;;5055198;28;20021;-79
2024/01/23 07:43:27;;;;;;;79.72;72.20;;;9.90;99.90;;;;;;5055025;28;20041;-78
2024/01/23 07:45:54;;;;;;;71.72;65.05;;;9.90;99.90;;;;;;5055197;28;20399;-79
2024/01/23 07:48:20;;;;;;;68.25;58.22;;;9.90;99.90;;;;;;5051128;28;20021;-79
2024/01/23 07:50:46;;;;;;;65.97;58.47;;;9.90;99.90;;;;;;5042478;28;20034;-79
2024/01/23 07:53:12;;;;;;;72.35;65.03;;;9.90;99.90;;;;;;5035518;28;20041;-89
2024/01/23 07:55:40;;;;;;;77.53;56.80;;;9.90;99.90;;;;;;5035770;28;20030;-88
2024/01/23 07:58:07;;;;;;;74.63;67.15;;;9.90;99.90;;;;;;5040012;28;20032;-87
2024/01/23 08:00:33;;;;;;;74.65;66.97;;;9.90;99.90;;;;;;5049603;28;20518;-88
2024/01/23 08:02:59;;;;;;;71.70;63.92;;;9.90;99.90;;;;;;5045675;28;20033;-89
2024/01/23 08:05:26;;;;;;;76.65;68.80;;;10.00;99.90;;;;;;5035277;28;20029;-89
2024/01/23 08:07:52;;;;;;;74.43;67.07;;;10.00;99.90;;;;;;5042666;28;20032;-89
2024/01/23 08:10:21;;;;;;;66.00;59.05;;;10.00;99.90;;;;;;5041379;28;20046;-89
2024/01/23 08:12:47;;;;;;;66.03;59.25;;;10.00;99.90;;;;;;5048706;28;20421;-89
2024/01/23 08:15:13;;;;;;;69.25;63.13;;;10.00;99.90;;;;;;5053056;28;20064;-75
2024/01/23 08:17:39;;;;;;;72.65;61.88;;;10.00;99.90;;;;;;5054384;28;20200;-78
2024/01/23 08:20:08;;;;;;;78.07;70.03;;;10.10;99.90;;;;;;5054520;28;20025;-75
2024/01/23 08:22:34;;;;;;;78.07;70.47;;;10.10;99.90;;;;;;5052417;28;20036;-80
2024/01/23 08:25:01;;;;;;;72.32;64.97;;;10.20;99.90;;;;;;5054940;28;20482;-77
2024/01/23 08:27:27;;;;;;;76.30;59.85;;;10.20;99.90;;;;;;5053652;28;20491;-75
2024/01/23 08:29:53;;;;;;;72.53;60.95;;;10.20;99.90;;;;;;5045059;28;20033;-78
2024/01/23 08:32:19;;;;;;;68.63;58.60;;;10.20;99.90;;;;;;5046299;28;20498;-73
2024/01/23 08:34:46;;;;;;;69.40;60.55;;;10.30;99.90;;;;;;5052429;28;20041;-76
2024/01/23 08:37:14;;;;;;;71.03;63.75;;;10.30;99.90;;;;;;5052402;28;20037;-77
2024/01/23 08:39:42;;;;;;;74.30;66.13;;;10.30;99.90;;;;;;5053880;28;20060;-78
2024/01/23 08:42:08;;;;;;;78.93;66.40;;;10.40;99.90;;;;;;5054058;28;20053;-78
2024/01/23 08:44:35;;;;;;;91.57;83.93;;;10.40;99.90;;;;;;5053545;28;20460;-79
2024/01/23 08:47:03;;;;;;;111.45;102.55;;;10.40;99.90;;;;;;5051461;28;20048;-74
2024/01/23 08:49:29;;;;;;;297.55;277.17;;;10.40;99.90;;;;;;5052015;28;20033;-74
2024/01/23 08:51:55;;;;;;;92.88;84.38;;;10.50;99.90;;;;;;5053964;28;20036;-77
2024/01/23 08:54:21;;;;;;;258.23;239.73;;;10.50;99.90;;;;;;5054059;28;20025;-75
2024/01/23 08:56:49;;;;;;;148.02;134.63;;;10.60;99.90;;;;;;5053245;28;20040;-79
2024/01/23 08:59:15;;;;;;;80.50;73.35;;;10.50;99.90;;;;;;5039540;28;20045;-77
2024/01/23 09:01:41;;;;;;;77.78;70.05;;;10.60;99.90;;;;;;5043741;28;20056;-77
2024/01/23 09:04:07;;;;;;;116.63;106.70;;;10.60;99.90;;;;;;5053734;28;20033;-74
2024/01/23 09:06:33;;;;;;;97.05;87.78;;;10.60;99.90;;;;;;5050895;28;20380;-74
2024/01/23 09:09:00;;;;;;;92.10;83.65;;;10.60;99.90;;;;;;5052835;28;20044;-73
2024/01/23 09:11:26;;;;;;;144.25;134.05;;;10.60;99.90;;;;;;5047555;28;20029;-75
2024/01/23 09:13:52;;;;;;;163.40;151.73;;;10.60;99.90;;;;;;5053200;28;20028;-75
2024/01/23 09:16:18;;;;;;;179.23;165.77;;;10.70;99.90;;;;;;5053046;28;20045;-75
2024/01/23 09:18:48;;;;;;;179.40;166.57;;;10.70;99.90;;;;;;5053865;28;20028;-77
2024/01/23 09:21:17;;;;;;;189.30;175.27;;;10.70;99.90;;;;;;5053224;28;20033;-76
2024/01/23 09:23:43;;;;;;;208.88;194.55;;;10.70;99.90;;;;;;5049212;28;20064;-76
2024/01/23 09:26:12;;;;;;;211.05;195.77;;;10.70;99.90;;;;;;5045404;28;20451;-76
2024/01/23 09:28:38;;;;;;;235.95;219.73;;;10.70;99.90;;;;;;5044125;28;20029;-76
2024/01/23 09:31:05;;;;;;;194.90;180.82;;;10.70;99.90;;;;;;5043354;28;20029;-77
2024/01/23 09:33:31;;;;;;;190.77;176.75;;;10.70;99.90;;;;;;5036687;28;20494;-77
2024/01/23 09:35:57;;;;;;;204.88;190.57;;;10.70;99.90;;;;;;5051092;28;20040;-78
2024/01/23 09:38:23;;;;;;;206.23;191.43;;;10.70;99.90;;;;;;5043299;28;20463;-77
2024/01/23 09:40:50;;;;;;;155.88;144.38;;;10.60;99.90;;;;;;5044809;28;20052;-77
2024/01/23 09:43:20;;;;;;;152.25;140.80;;;10.60;99.90;;;;;;5032172;28;20026;-77
2024/01/23 09:45:50;;;;;;;99.45;91.18;;;10.60;99.90;;;;;;5034628;28;20029;-77
2024/01/23 09:48:16;;;;;;;92.03;82.78;;;10.70;99.90;;;;;;5047972;28;20029;-77
2024/01/23 09:50:42;;;;;;;101.68;93.10;;;10.70;99.90;;;;;;5052789;28;20048;-77
2024/01/23 09:53:09;;;;;;;109.38;99.95;;;10.70;99.90;;;;;;5050982;28;20040;-77
2024/01/23 09:55:35;;;;;;;103.25;95.03;;;10.70;99.90;;;;;;5050576;28;20032;-77
2024/01/23 09:58:03;;;;;;;84.38;75.60;;;10.80;99.90;;;;;;5051109;28;20033;-78
2024/01/23 10:00:29;;;;;;;97.90;88.53;;;10.90;99.90;;;;;;5052122;28;20036;-77
2024/01/23 10:02:55;;;;;;;89.15;81.15;;;10.90;99.90;;;;;;5043172;28;20040;-77
2024/01/23 10:05:22;;;;;;;82.75;74.28;;;11.00;99.90;;;;;;5032702;28;20025;-77
2024/01/23 10:07:48;;;;;;;89.35;79.90;;;11.00;99.90;;;;;;5050518;28;20041;-77
2024/01/23 10:10:16;;;;;;;98.53;90.85;;;11.00;99.90;;;;;;5049972;28;20454;-77
2024/01/23 10:12:48;;;;;;;101.28;92.55;;;11.00;99.90;;;;;;5032814;28;20479;-77
2024/01/23 10:15:18;;;;;;;112.60;102.72;;;11.00;99.90;;;;;;5036700;28;20060;-77
2024/01/23 10:17:45;;;;;;;104.15;94.82;;;11.10;99.90;;;;;;5042628;28;20038;-77
2024/01/23 10:20:11;;;;;;;107.85;98.10;;;11.10;99.90;;;;;;5030540;28;20064;-77
2024/01/23 10:22:37;;;;;;;93.85;84.65;;;11.10;99.90;;;;;;5030801;28;20037;-77
2024/01/23 10:25:10;;;;;;;85.93;78.03;;;11.10;99.90;;;;;;5034352;28;20029;-77
2024/01/23 10:27:36;;;;;;;84.50;76.10;;;11.10;99.90;;;;;;5029740;28;20040;-77
2024/01/23 10:30:02;;;;;;;92.15;84.28;;;11.20;99.90;;;;;;5042868;28;20036;-81
2024/01/23 10:32:30;;;;;;;87.38;79.70;;;11.10;99.90;;;;;;5044592;28;20426;-81
2024/01/23 10:34:56;;;;;;;85.35;77.03;;;11.10;99.90;;;;;;5039400;28;20037;-81
2024/01/23 10:37:22;;;;;;;93.50;85.05;;;11.20;99.90;;;;;;5045373;28;20060;-71
2024/01/23 10:39:49;;;;;;;119.22;107.75;;;11.20;99.90;;;;;;5042302;28;20411;-68
2024/01/23 10:42:18;;;;;;;149.73;137.82;;;11.20;99.90;;;;;;5050313;28;20048;-79
2024/01/23 10:44:47;;;;;;;224.35;209.07;;;11.30;99.90;;;;;;5040621;28;20033;-80
2024/01/23 10:47:15;;;;;;;193.18;179.95;;;11.30;99.90;;;;;;5048648;28;20037;-79
2024/01/23 10:49:44;;;;;;;226.48;211.20;;;11.30;99.90;;;;;;5052469;28;20033;-80
2024/01/23 10:52:18;;;;;;;170.27;158.63;;;11.40;99.90;;;;;;5039522;28;20033;-80
2024/01/23 10:54:48;;;;;;;148.55;138.45;;;11.40;99.90;;;;;;5031817;28;20483;-80
2024/01/23 10:57:22;;;;;;;133.52;123.25;;;11.50;99.90;;;;;;5030764;28;20047;-81
2024/01/23 10:59:49;;;;;;;127.97;117.82;;;11.50;99.90;;;;;;5052104;28;20494;-80
2024/01/23 11:02:18;;;;;;;130.98;121.43;;;11.60;99.90;;;;;;5050924;28;20049;-80
2024/01/23 11:04:44;;;;;;;126.95;117.38;;;11.60;99.90;;;;;;5051630;28;20028;-80
2024/01/23 11:07:15;;;;;;;124.78;114.80;;;11.70;99.90;;;;;;5050565;28;20032;-79
2024/01/23 11:09:47;;;;;;;101.20;92.85;;;11.70;99.90;;;;;;5052082;28;20021;-79
2024/01/23 11:12:48;;;;;;;106.75;98.13;;;11.70;99.90;;;;;;5033780;28;20025;-79
2024/01/23 11:15:15;;;;;;;88.00;79.20;;;11.70;99.90;;;;;;4950667;28;20051;-78
2024/01/23 11:17:41;;;;;;;130.73;120.78;;;11.70;99.90;;;;;;4954611;28;20042;-78
2024/01/23 11:20:14;;;;;;;118.82;109.35;;;11.80;99.90;;;;;;4954653;28;20062;-79
2024/01/23 11:22:41;;;;;;;171.57;159.23;;;11.80;99.90;;;;;;4955306;28;20043;-81
2024/01/23 11:25:07;;;;;;;164.07;152.98;;;11.80;99.90;;;;;;4970918;28;20037;-78
2024/01/23 11:27:33;;;;;;;214.50;198.75;;;11.80;99.90;;;;;;4954733;28;20520;-79
2024/01/23 11:30:00;;;;;;;239.05;222.98;;;11.80;99.90;;;;;;4971057;28;20034;-78
2024/01/23 11:32:28;;;;;;;221.65;207.07;;;11.90;99.90;;;;;;4970060;28;20051;-78
2024/01/23 11:35:01;;;;;;;179.00;166.35;;;11.90;99.90;;;;;;4970435;28;20166;-77
2024/01/23 11:37:41;;;;;;;206.43;191.35;;;11.90;99.90;;;;;;4970884;28;20038;-78
2024/01/23 11:40:26;;;;;;;168.48;155.45;;;11.90;99.90;;;;;;4970860;28;20035;-78
2024/01/23 11:42:53;;;;;;;163.88;150.65;;;11.90;99.90;;;;;;4952233;28;20429;-78
2024/01/23 11:45:35;;;;;;;163.75;149.43;;;12.00;99.90;;;;;;4969982;28;20039;-77
2024/01/23 11:48:05;;;;;;;156.07;143.77;;;12.00;99.90;;;;;;4970959;28;20039;-77
2024/01/23 11:50:32;;;;;;;191.15;177.18;;;12.00;99.90;;;;;;4968684;28;21741;-78
2024/01/23 11:52:59;;;;;;;202.43;187.32;;;12.00;99.90;;;;;;5024800;28;20033;-77
2024/01/23 11:55:25;;;;;;;155.80;143.00;;;12.00;99.90;;;;;;5044234;28;20033;-77
2024/01/23 11:57:52;;;;;;;162.68;149.82;;;12.00;99.90;;;;;;5049539;28;20029;-77
2024/01/23 12:00:19;;;;;;;163.13;150.65;;;12.10;99.90;;;;;;5050413;28;20036;-78
2024/01/23 12:02:46;;;;;;;138.85;128.38;;;12.10;99.90;;;;;;5049289;28;20033;-78
2024/01/23 12:05:12;;;;;;;137.65;127.88;;;12.10;99.90;;;;;;5051153;28;20021;-78
2024/01/23 12:07:39;;;;;;;162.30;150.40;;;12.10;99.90;;;;;;5049977;28;20642;-78
2024/01/23 12:10:06;;;;;;;144.50;133.65;;;12.10;99.90;;;;;;5053344;28;20017;-77
2024/01/23 12:12:32;;;;;;;122.22;112.03;;;12.10;99.90;;;;;;5017553;28;20048;-78
2024/01/23 12:14:58;;;;;;;134.27;122.78;;;12.10;99.90;;;;;;5035000;28;20053;-77
2024/01/23 12:17:24;;;;;;;124.22;113.93;;;12.20;99.90;;;;;;5040760;28;20042;-78
2024/01/23 12:19:50;;;;;;;142.00;130.50;;;12.20;99.90;;;;;;5038312;28;20040;-78
2024/01/23 12:22:17;;;;;;;113.93;104.75;;;12.20;99.90;;;;;;5049620;28;20048;-77
2024/01/23 12:24:43;;;;;;;129.13;118.80;;;12.20;99.90;;;;;;5037340;28;20045;-77